Time;durP1;ratioP1;P1;durP2;ratioP2;P2;SDS_P1;SDS_P2;PMS_P1;PMS_P2;Temp;Humidity;BMP_temperature;BMP_pressure;BME280_temperature;BME280_humidity;BME280_pressure;Samples;Min_cycle;Max_cycle;Signal;HPM_P1;HPM_P2
2021/10/10 00:01:06;;;;;;;11.32;8.73;;;13.60;64.70;;;;;;5027584;28;20523;-65
2021/10/10 00:03:32;;;;;;;12.50;8.40;;;13.50;64.50;;;;;;5022765;28;20036;-65
2021/10/10 00:05:58;;;;;;;11.15;8.32;;;13.50;64.20;;;;;;5029415;28;20030;-65
2021/10/10 00:08:23;;;;;;;12.10;8.52;;;13.40;63.70;;;;;;5018476;28;20034;-65
2021/10/10 00:10:49;;;;;;;11.50;8.32;;;13.40;63.70;;;;;;5016261;28;20018;-65
2021/10/10 00:13:16;;;;;;;9.88;7.75;;;13.30;63.50;;;;;;5024987;28;20022;-65
2021/10/10 00:15:42;;;;;;;10.75;8.05;;;13.20;63.40;;;;;;5028309;28;20058;-65
2021/10/10 00:18:08;;;;;;;11.65;7.80;;;13.20;63.30;;;;;;5028415;28;20450;-65
2021/10/10 00:20:35;;;;;;;9.63;7.63;;;13.20;63.40;;;;;;5028123;28;20377;-65
2021/10/10 00:23:01;;;;;;;9.38;7.13;;;13.10;63.20;;;;;;5029997;28;20381;-65
2021/10/10 00:25:27;;;;;;;10.85;7.32;;;13.10;63.20;;;;;;5018075;28;20083;-65
2021/10/10 00:27:53;;;;;;;9.98;8.07;;;13.00;63.20;;;;;;5016251;28;20108;-65
2021/10/10 00:30:21;;;;;;;12.48;8.43;;;13.00;63.40;;;;;;5024055;28;20108;-66
2021/10/10 00:32:47;;;;;;;10.05;7.05;;;13.00;63.60;;;;;;5029293;28;20033;-65
2021/10/10 00:35:14;;;;;;;11.25;7.68;;;12.90;63.80;;;;;;5019921;28;20030;-65
2021/10/10 00:37:42;;;;;;;12.75;9.25;;;12.90;63.90;;;;;;5018540;28;20025;-65
2021/10/10 00:40:09;;;;;;;17.52;11.45;;;12.80;64.00;;;;;;5017711;28;20096;-65
2021/10/10 00:42:35;;;;;;;28.13;10.93;;;12.80;64.50;;;;;;5018778;28;20047;-65
2021/10/10 00:45:00;;;;;;;21.70;11.07;;;12.80;64.90;;;;;;5028870;28;20546;-65
2021/10/10 00:47:26;;;;;;;16.30;10.80;;;12.80;64.90;;;;;;5027512;28;20064;-65
2021/10/10 00:49:52;;;;;;;13.48;10.07;;;12.80;65.10;;;;;;5021796;28;20029;-65
2021/10/10 00:52:18;;;;;;;15.23;10.35;;;12.80;65.20;;;;;;5027484;28;20385;-65
2021/10/10 00:54:48;;;;;;;13.43;10.35;;;12.80;65.20;;;;;;5025758;28;20040;-65
2021/10/10 00:57:16;;;;;;;13.48;10.48;;;12.70;65.70;;;;;;5027613;28;20026;-65
2021/10/10 00:59:46;;;;;;;15.30;10.73;;;12.70;66.10;;;;;;5028125;28;20037;-65
2021/10/10 01:02:12;;;;;;;15.53;10.60;;;12.70;66.10;;;;;;5029401;28;20389;-65
2021/10/10 01:04:39;;;;;;;14.68;10.45;;;12.70;65.70;;;;;;5023887;28;20060;-65
2021/10/10 01:07:06;;;;;;;15.07;10.70;;;12.70;65.60;;;;;;5028137;28;20029;-65
2021/10/10 01:09:35;;;;;;;12.10;9.25;;;12.70;65.60;;;;;;5029454;28;20053;-65
2021/10/10 01:12:02;;;;;;;15.20;10.10;;;12.70;65.60;;;;;;5030229;28;20025;-65
2021/10/10 01:14:28;;;;;;;16.20;12.70;;;12.90;65.50;;;;;;5027125;28;20488;-65
2021/10/10 01:16:54;;;;;;;23.63;17.35;;;12.90;65.70;;;;;;5022101;28;20393;-65
2021/10/10 01:19:20;;;;;;;25.65;17.58;;;13.00;67.30;;;;;;5025148;28;20063;-65
2021/10/10 01:21:46;;;;;;;27.05;20.17;;;13.10;67.90;;;;;;5059124;28;20053;-65
2021/10/10 01:24:12;;;;;;;31.05;21.15;;;13.20;68.50;;;;;;5029988;28;20029;-65
2021/10/10 01:26:38;;;;;;;43.47;26.45;;;13.40;68.90;;;;;;5017289;28;20034;-65
2021/10/10 01:29:04;;;;;;;55.00;28.73;;;13.50;69.70;;;;;;5022410;28;20017;-65
2021/10/10 01:31:29;;;;;;;82.78;31.80;;;13.60;71.20;;;;;;5028740;28;20037;-65
2021/10/10 01:33:55;;;;;;;50.65;29.67;;;13.70;72.10;;;;;;5026834;28;20060;-65
2021/10/10 01:36:21;;;;;;;91.22;33.45;;;13.80;72.50;;;;;;5028663;28;20033;-65
2021/10/10 01:38:47;;;;;;;70.30;30.25;;;13.90;74.30;;;;;;5029447;28;20030;-65
2021/10/10 01:41:12;;;;;;;100.47;31.70;;;13.90;74.30;;;;;;5026326;28;20079;-65
2021/10/10 01:43:39;;;;;;;91.18;33.25;;;14.00;74.40;;;;;;5026738;28;20022;-65
2021/10/10 01:46:05;;;;;;;76.47;31.02;;;14.00;75.00;;;;;;5026778;28;20033;-65
2021/10/10 01:48:30;;;;;;;93.70;31.27;;;14.10;75.40;;;;;;5027427;28;20047;-66
2021/10/10 01:50:57;;;;;;;75.55;31.52;;;14.10;75.40;;;;;;5029773;28;20481;-65
2021/10/10 01:53:23;;;;;;;82.78;31.58;;;14.10;75.60;;;;;;5026755;28;20121;-65
2021/10/10 01:55:49;;;;;;;78.70;30.75;;;14.10;75.50;;;;;;5026637;28;20482;-65
2021/10/10 01:58:15;;;;;;;89.50;30.65;;;14.20;75.20;;;;;;5027461;28;20052;-65
2021/10/10 02:00:41;;;;;;;79.13;31.55;;;14.20;75.10;;;;;;5026463;28;20043;-65
2021/10/10 02:03:07;;;;;;;78.80;32.47;;;14.20;75.40;;;;;;5029576;28;20033;-66
2021/10/10 02:05:33;;;;;;;85.30;33.05;;;14.20;75.80;;;;;;5029213;28;20079;-66
2021/10/10 02:07:59;;;;;;;70.88;31.42;;;14.20;75.80;;;;;;5025907;28;20519;-65
2021/10/10 02:10:24;;;;;;;72.18;32.53;;;14.20;75.90;;;;;;5026303;28;20459;-65
2021/10/10 02:12:50;;;;;;;84.57;33.03;;;14.20;76.20;;;;;;5026364;28;20029;-65
2021/10/10 02:15:17;;;;;;;91.72;33.13;;;14.10;76.10;;;;;;5028434;28;20033;-65
2021/10/10 02:17:43;;;;;;;51.35;27.85;;;14.10;76.00;;;;;;5020870;28;20460;-65
2021/10/10 02:20:09;;;;;;;80.97;30.80;;;14.10;76.00;;;;;;5026010;28;20033;-65
2021/10/10 02:22:36;;;;;;;82.32;30.48;;;14.10;75.90;;;;;;5025228;28;20076;-65
2021/10/10 02:25:02;;;;;;;55.42;29.35;;;14.10;75.90;;;;;;5014810;28;20096;-65
2021/10/10 02:27:28;;;;;;;63.20;28.80;;;14.10;75.90;;;;;;5027231;28;20392;-65
2021/10/10 02:29:54;;;;;;;74.63;28.15;;;14.10;75.70;;;;;;5029570;28;20026;-65
2021/10/10 02:32:20;;;;;;;65.15;27.73;;;14.10;75.90;;;;;;5021199;28;20049;-65
2021/10/10 02:34:46;;;;;;;68.90;27.15;;;14.10;75.70;;;;;;5021101;28;20541;-65
2021/10/10 02:37:12;;;;;;;61.42;28.02;;;14.10;75.60;;;;;;5015837;28;20497;-65
2021/10/10 02:39:38;;;;;;;57.88;27.10;;;14.10;75.80;;;;;;5025638;28;20068;-65
2021/10/10 02:42:04;;;;;;;58.30;25.20;;;14.10;75.90;;;;;;5029717;28;20497;-65
2021/10/10 02:44:30;;;;;;;75.80;25.17;;;14.10;75.80;;;;;;5026301;28;20039;-65
2021/10/10 02:46:56;;;;;;;104.10;26.38;;;14.10;76.10;;;;;;5026070;28;20021;-65
2021/10/10 02:49:22;;;;;;;88.85;25.23;;;14.00;76.00;;;;;;5029677;28;20091;-65
2021/10/10 02:51:48;;;;;;;71.15;24.55;;;14.00;76.00;;;;;;5031449;28;20095;-65
2021/10/10 02:54:13;;;;;;;60.72;25.63;;;14.00;76.00;;;;;;5031971;28;20590;-65
2021/10/10 02:56:39;;;;;;;63.40;23.65;;;14.00;76.10;;;;;;5031042;28;20029;-65
2021/10/10 02:59:05;;;;;;;54.28;22.50;;;14.00;76.20;;;;;;5031669;28;20392;-65
2021/10/10 03:01:31;;;;;;;67.35;24.52;;;14.00;76.20;;;;;;5026560;28;20040;-65
2021/10/10 03:03:56;;;;;;;98.93;24.88;;;14.10;76.20;;;;;;5030114;28;20397;-65
2021/10/10 03:06:22;;;;;;;72.47;23.17;;;14.00;76.40;;;;;;5029799;28;20025;-65
2021/10/10 03:08:48;;;;;;;45.60;21.73;;;14.00;76.30;;;;;;5033037;28;20025;-66
2021/10/10 03:11:14;;;;;;;59.47;22.45;;;14.00;76.50;;;;;;5028148;28;20033;-65
2021/10/10 03:13:40;;;;;;;73.78;23.63;;;14.00;76.40;;;;;;5024798;28;20063;-65
2021/10/10 03:16:05;;;;;;;64.28;23.35;;;14.00;77.30;;;;;;5029224;28;20059;-65
2021/10/10 03:18:31;;;;;;;53.72;23.75;;;14.00;76.30;;;;;;5029802;28;20397;-66
2021/10/10 03:20:57;;;;;;;59.55;23.55;;;14.00;76.70;;;;;;5017837;28;20092;-65
2021/10/10 03:23:23;;;;;;;67.75;23.63;;;13.90;76.80;;;;;;5026371;28;20029;-65
2021/10/10 03:25:49;;;;;;;73.72;23.20;;;13.90;76.90;;;;;;5028522;28;20033;-65
2021/10/10 03:28:14;;;;;;;50.05;22.38;;;13.90;77.00;;;;;;5027686;28;20056;-65
2021/10/10 03:30:40;;;;;;;51.33;22.80;;;13.90;77.10;;;;;;5014475;28;20033;-65
2021/10/10 03:33:06;;;;;;;60.55;23.08;;;13.90;77.20;;;;;;5032515;28;20017;-65
2021/10/10 03:35:32;;;;;;;65.78;23.65;;;13.80;77.50;;;;;;5028762;28;20496;-65
2021/10/10 03:37:57;;;;;;;66.32;22.88;;;13.80;77.70;;;;;;5030989;28;20032;-65
2021/10/10 03:40:23;;;;;;;53.90;22.52;;;13.70;77.60;;;;;;5028482;28;20053;-65
2021/10/10 03:42:49;;;;;;;67.72;23.13;;;13.70;77.80;;;;;;5030128;28;20026;-65
2021/10/10 03:45:15;;;;;;;61.58;23.23;;;13.70;77.80;;;;;;5030770;28;20025;-65
2021/10/10 03:47:41;;;;;;;62.53;23.08;;;13.70;77.70;;;;;;5020859;28;20070;-66
2021/10/10 03:50:07;;;;;;;58.58;23.10;;;13.70;78.00;;;;;;5028158;28;20029;-65
2021/10/10 03:52:34;;;;;;;57.08;23.20;;;13.70;78.20;;;;;;5029676;28;20029;-65
2021/10/10 03:57:26;;;;;;;59.75;22.70;;;13.60;78.50;;;;;;5029787;28;20029;-66
2021/10/10 04:00:12;;;;;;;57.10;23.23;;;13.60;78.70;;;;;;5031140;28;20447;-66
2021/10/10 04:02:38;;;;;;;55.35;22.80;;;13.60;78.60;;;;;;5028723;28;20497;-66
2021/10/10 04:05:08;;;;;;;62.72;23.92;;;13.60;78.90;;;;;;5029827;28;20029;-66
2021/10/10 04:07:33;;;;;;;108.43;24.55;;;13.60;79.10;;;;;;5028270;28;20116;-66
2021/10/10 04:09:59;;;;;;;55.70;22.55;;;13.50;79.00;;;;;;5028491;28;20022;-66
2021/10/10 04:12:25;;;;;;;45.65;22.20;;;13.60;79.10;;;;;;5029667;28;20913;-66
2021/10/10 04:14:54;;;;;;;42.70;20.98;;;13.60;78.90;;;;;;5030007;28;20057;-66
2021/10/10 04:17:19;;;;;;;50.80;20.48;;;13.60;78.70;;;;;;5028030;28;20029;-66
2021/10/10 04:19:45;;;;;;;43.47;21.20;;;13.70;78.50;;;;;;5029631;28;20024;-66
2021/10/10 04:22:11;;;;;;;49.58;21.17;;;13.80;78.40;;;;;;5028211;28;20112;-66
2021/10/10 04:24:36;;;;;;;48.97;20.73;;;13.80;78.30;;;;;;5030020;28;20022;-66
2021/10/10 04:27:02;;;;;;;49.55;21.02;;;13.90;78.10;;;;;;5031493;28;20040;-66
2021/10/10 04:29:28;;;;;;;54.25;21.90;;;13.90;77.80;;;;;;5030187;28;20029;-66
2021/10/10 04:31:54;;;;;;;41.20;21.25;;;13.90;77.70;;;;;;5029372;28;20030;-66
2021/10/10 04:34:19;;;;;;;74.10;22.25;;;13.90;77.60;;;;;;5025729;28;20035;-66
2021/10/10 04:36:45;;;;;;;42.85;21.58;;;13.90;77.40;;;;;;5023940;28;20105;-66
2021/10/10 04:39:11;;;;;;;83.72;23.27;;;14.00;77.40;;;;;;5030638;28;20412;-66
2021/10/10 04:41:36;;;;;;;50.85;21.40;;;14.00;77.50;;;;;;5019709;28;20567;-66
2021/10/10 04:44:09;;;;;;;83.55;24.83;;;14.00;77.30;;;;;;5027733;28;20026;-66
2021/10/10 04:46:37;;;;;;;40.05;22.00;;;14.00;77.30;;;;;;5027685;28;20040;-66
2021/10/10 04:49:04;;;;;;;70.30;23.63;;;14.00;77.30;;;;;;5027464;28;20017;-66
2021/10/10 04:51:34;;;;;;;64.82;24.50;;;14.00;77.30;;;;;;5028485;28;20018;-66
2021/10/10 04:54:06;;;;;;;63.40;23.43;;;14.00;77.30;;;;;;5015836;28;20032;-66
2021/10/10 04:56:40;;;;;;;42.55;22.10;;;14.00;77.30;;;;;;5029708;28;20319;-66
2021/10/10 04:59:09;;;;;;;49.70;23.38;;;13.90;77.30;;;;;;5027195;28;20014;-67
2021/10/10 05:01:39;;;;;;;53.00;25.58;;;14.00;77.40;;;;;;5027628;28;20133;-66
2021/10/10 05:04:04;;;;;;;57.35;25.65;;;13.90;78.60;;;;;;5026770;28;20559;-67
2021/10/10 05:06:37;;;;;;;48.10;23.95;;;13.90;77.70;;;;;;5027596;28;20113;-66
2021/10/10 05:09:10;;;;;;;40.83;23.17;;;13.90;77.70;;;;;;5027261;28;20072;-66
2021/10/10 05:11:38;;;;;;;48.83;23.85;;;13.90;77.70;;;;;;5027787;28;20057;-66
2021/10/10 05:14:05;;;;;;;56.72;24.55;;;13.90;77.70;;;;;;5027149;28;20022;-66
2021/10/10 05:16:40;;;;;;;61.22;26.42;;;13.90;77.60;;;;;;5026790;28;20036;-67
2021/10/10 05:19:08;;;;;;;68.82;26.42;;;13.90;77.60;;;;;;5027271;28;20244;-66
2021/10/10 05:21:36;;;;;;;56.00;26.40;;;13.90;77.70;;;;;;5011664;28;20072;-66
2021/10/10 05:24:05;;;;;;;63.45;28.00;;;13.90;78.00;;;;;;5031101;28;20028;-66
2021/10/10 05:26:34;;;;;;;46.35;25.58;;;13.80;78.00;;;;;;5027100;28;20042;-66
2021/10/10 05:29:03;;;;;;;37.88;23.38;;;13.80;78.00;;;;;;5027060;28;20029;-66
2021/10/10 05:31:31;;;;;;;46.42;24.55;;;13.80;78.10;;;;;;5026809;28;20076;-66
2021/10/10 05:33:56;;;;;;;49.13;26.05;;;13.90;78.00;;;;;;5028193;28;20040;-66
2021/10/10 05:36:22;;;;;;;40.40;24.08;;;13.80;78.00;;;;;;5028437;28;20064;-66
2021/10/10 05:38:48;;;;;;;40.25;24.48;;;13.80;77.90;;;;;;5028953;28;20061;-66
2021/10/10 05:41:14;;;;;;;42.78;24.88;;;13.90;77.90;;;;;;5026334;28;20413;-66
2021/10/10 05:43:40;;;;;;;43.10;25.35;;;13.90;77.90;;;;;;5028167;28;20033;-66
2021/10/10 05:46:06;;;;;;;53.55;27.67;;;13.90;77.70;;;;;;5026296;28;20021;-66
2021/10/10 05:48:31;;;;;;;49.63;26.02;;;13.90;77.60;;;;;;5027614;28;20034;-66
2021/10/10 05:50:57;;;;;;;54.53;27.52;;;13.90;77.70;;;;;;5029786;28;20113;-66
2021/10/10 05:53:24;;;;;;;51.58;27.42;;;13.80;77.70;;;;;;5024498;28;20040;-66
2021/10/10 05:55:54;;;;;;;52.30;27.80;;;13.80;77.90;;;;;;5026305;28;20037;-66
2021/10/10 05:58:21;;;;;;;52.55;27.42;;;13.70;78.00;;;;;;5026492;28;20104;-66
2021/10/10 06:00:47;;;;;;;44.13;25.00;;;13.70;78.10;;;;;;5057935;28;20038;-66
2021/10/10 06:03:12;;;;;;;43.75;25.30;;;13.70;78.10;;;;;;5026707;28;20021;-66
2021/10/10 06:05:39;;;;;;;50.25;26.50;;;13.70;78.20;;;;;;5017030;28;20026;-66
2021/10/10 06:08:05;;;;;;;49.38;26.75;;;13.80;78.20;;;;;;5027140;28;20060;-66
2021/10/10 06:10:32;;;;;;;56.28;29.20;;;13.80;78.20;;;;;;5022834;28;20033;-66
2021/10/10 06:12:58;;;;;;;51.83;27.80;;;13.70;78.30;;;;;;5025040;28;20037;-66
2021/10/10 06:15:25;;;;;;;58.40;31.05;;;13.70;78.60;;;;;;5027505;28;20026;-67
2021/10/10 06:17:51;;;;;;;62.83;30.63;;;13.70;78.60;;;;;;5033465;28;20017;-67
2021/10/10 06:20:17;;;;;;;55.42;28.50;;;13.70;78.70;;;;;;5024734;28;20034;-67
2021/10/10 06:22:43;;;;;;;55.28;27.17;;;13.70;78.80;;;;;;5029387;28;20029;-67
2021/10/10 06:25:09;;;;;;;58.85;28.60;;;13.70;78.80;;;;;;5029810;28;20113;-67
2021/10/10 06:27:37;;;;;;;59.35;28.45;;;13.70;78.90;;;;;;5024896;28;20025;-67
2021/10/10 06:30:03;;;;;;;54.78;27.95;;;13.60;79.00;;;;;;5017799;28;20037;-67
2021/10/10 06:32:29;;;;;;;56.72;28.20;;;13.50;79.30;;;;;;5023602;28;20033;-67
2021/10/10 06:34:54;;;;;;;52.10;27.45;;;13.50;79.30;;;;;;5023259;28;20026;-67
2021/10/10 06:37:20;;;;;;;48.00;26.40;;;13.50;79.60;;;;;;5030645;28;20436;-67
2021/10/10 06:39:46;;;;;;;49.35;25.77;;;13.50;79.50;;;;;;5023343;28;20520;-66
2021/10/10 06:42:12;;;;;;;46.65;25.60;;;13.50;79.30;;;;;;5032745;28;20504;-66
2021/10/10 06:44:38;;;;;;;48.35;25.73;;;13.50;79.20;;;;;;5021057;28;20037;-65
2021/10/10 06:47:04;;;;;;;47.75;27.27;;;13.60;79.10;;;;;;5032678;28;20505;-64
2021/10/10 06:49:30;;;;;;;49.63;27.55;;;13.60;79.00;;;;;;5030167;28;20041;-65
2021/10/10 06:51:55;;;;;;;49.42;26.80;;;13.70;78.80;;;;;;5037062;28;20392;-68
2021/10/10 06:54:21;;;;;;;50.88;27.50;;;13.70;78.70;;;;;;5020967;28;20026;-66
2021/10/10 06:56:47;;;;;;;47.53;26.17;;;13.80;78.70;;;;;;5033909;28;20021;-66
2021/10/10 06:59:13;;;;;;;49.90;26.08;;;13.80;78.50;;;;;;5022997;28;20167;-65
2021/10/10 07:01:39;;;;;;;52.55;27.73;;;13.80;78.50;;;;;;5026378;28;20510;-66
2021/10/10 07:04:05;;;;;;;52.55;27.00;;;13.90;78.50;;;;;;5030482;28;20032;-66
2021/10/10 07:06:30;;;;;;;53.65;27.65;;;13.90;78.50;;;;;;5030771;28;20022;-65
2021/10/10 07:08:56;;;;;;;55.85;28.83;;;13.90;78.50;;;;;;5033083;28;20018;-65
2021/10/10 07:11:23;;;;;;;52.35;27.27;;;13.90;78.60;;;;;;5027131;28;20030;-65
2021/10/10 07:13:49;;;;;;;50.05;26.70;;;13.90;78.50;;;;;;5029597;28;20091;-65
2021/10/10 07:16:15;;;;;;;45.03;26.35;;;13.90;78.10;;;;;;5031020;28;20029;-65
2021/10/10 07:18:48;;;;;;;50.58;27.25;;;14.00;77.90;;;;;;5031908;28;20022;-65
2021/10/10 07:26:24;;;;;;;47.22;26.42;;;14.20;77.10;;;;;;5027234;28;20033;-64
2021/10/10 07:28:51;;;;;;;44.20;25.50;;;14.30;77.10;;;;;;5021158;28;20053;-64
2021/10/10 07:31:17;;;;;;;44.35;25.80;;;14.40;76.90;;;;;;5023302;28;20029;-64
2021/10/10 07:33:43;;;;;;;46.08;26.23;;;14.50;76.50;;;;;;5028334;28;20023;-64
2021/10/10 07:36:09;;;;;;;40.35;25.55;;;14.70;76.10;;;;;;5031385;28;20029;-64
2021/10/10 07:38:36;;;;;;;44.05;26.02;;;14.80;75.50;;;;;;5028624;28;20080;-64
2021/10/10 07:41:04;;;;;;;43.40;25.38;;;14.90;75.40;;;;;;5028651;28;20521;-64
2021/10/10 07:43:32;;;;;;;42.58;26.40;;;15.20;74.70;;;;;;5027164;28;20100;-64
2021/10/10 07:46:06;;;;;;;42.17;25.77;;;15.30;74.10;;;;;;5028677;28;20022;-64
2021/10/10 07:48:34;;;;;;;48.35;26.67;;;15.40;73.70;;;;;;5029679;28;20486;-64
2021/10/10 07:51:00;;;;;;;44.25;26.08;;;15.50;73.30;;;;;;5030815;28;20040;-64
2021/10/10 07:53:25;;;;;;;41.67;26.20;;;15.50;73.10;;;;;;5026715;28;20026;-65
2021/10/10 07:55:51;;;;;;;40.65;25.67;;;15.50;72.90;;;;;;5027131;28;20035;-64
2021/10/10 07:58:17;;;;;;;38.35;25.40;;;15.70;72.70;;;;;;5028141;28;20017;-64
2021/10/10 08:00:43;;;;;;;37.22;24.25;;;16.00;71.80;;;;;;5027219;28;20046;-64
2021/10/10 08:03:09;;;;;;;39.17;25.23;;;16.20;70.90;;;;;;5031431;28;20497;-65
2021/10/10 08:05:40;;;;;;;36.63;24.70;;;16.70;70.40;;;;;;5028824;28;20421;-64
2021/10/10 08:08:06;;;;;;;37.08;23.52;;;16.80;69.20;;;;;;5026716;28;20049;-65
2021/10/10 08:10:32;;;;;;;34.17;23.27;;;17.50;68.00;;;;;;5027868;28;20059;-65
2021/10/10 08:12:58;;;;;;;33.13;23.17;;;18.00;66.70;;;;;;5026378;28;20029;-64
2021/10/10 08:15:24;;;;;;;32.30;22.38;;;18.30;65.40;;;;;;5029531;28;20029;-65
2021/10/10 08:17:51;;;;;;;29.70;21.73;;;19.50;63.00;;;;;;5025628;28;20030;-65
2021/10/10 08:20:17;;;;;;;34.00;22.88;;;19.80;60.40;;;;;;5025824;28;20592;-65
2021/10/10 08:22:45;;;;;;;30.85;21.85;;;20.00;58.80;;;;;;5027255;28;20029;-64
2021/10/10 08:25:11;;;;;;;27.88;20.83;;;21.10;57.80;;;;;;5042444;28;20028;-65
2021/10/10 08:27:39;;;;;;;30.55;21.73;;;22.40;54.40;;;;;;5028054;28;20033;-65
2021/10/10 08:30:08;;;;;;;25.90;20.55;;;23.40;52.10;;;;;;5027928;28;20029;-65
2021/10/10 08:32:33;;;;;;;27.83;21.90;;;24.00;50.80;;;;;;5029974;28;20032;-65
2021/10/10 08:34:59;;;;;;;26.08;20.77;;;23.90;50.20;;;;;;5026912;28;20022;-65
2021/10/10 08:37:25;;;;;;;25.98;20.05;;;23.30;50.20;;;;;;5026891;28;20049;-65
2021/10/10 08:39:51;;;;;;;27.48;20.40;;;22.80;50.40;;;;;;5027315;28;20050;-65
2021/10/10 08:42:21;;;;;;;25.55;19.50;;;23.60;50.20;;;;;;5027543;28;20029;-65
2021/10/10 08:44:52;;;;;;;24.15;19.38;;;24.40;49.10;;;;;;5024363;28;20029;-65
2021/10/10 08:47:19;;;;;;;25.05;19.60;;;25.00;47.90;;;;;;5038026;28;20530;-65
2021/10/10 08:49:45;;;;;;;23.77;19.55;;;26.30;45.50;;;;;;5034661;28;20027;-66
2021/10/10 08:52:12;;;;;;;25.27;19.13;;;27.40;42.70;;;;;;5037105;28;20120;-65
2021/10/10 08:54:38;;;;;;;22.40;18.27;;;28.30;40.40;;;;;;5030479;28;20068;-65
2021/10/10 08:57:10;;;;;;;22.55;19.02;;;29.10;38.30;;;;;;5030058;28;20025;-66
2021/10/10 08:59:41;;;;;;;21.50;18.17;;;29.90;36.80;;;;;;5027192;28;20030;-65
2021/10/10 09:02:17;;;;;;;19.83;17.73;;;30.60;34.70;;;;;;5025667;28;20066;-66
2021/10/10 09:04:43;;;;;;;20.55;17.05;;;31.20;35.00;;;;;;5030854;28;20071;-65
2021/10/10 09:07:09;;;;;;;20.02;17.80;;;31.90;33.40;;;;;;5033343;28;20030;-66
2021/10/10 09:09:36;;;;;;;19.08;16.98;;;32.50;32.10;;;;;;5032938;28;20396;-66
2021/10/10 09:12:05;;;;;;;21.00;17.25;;;33.20;31.30;;;;;;5029429;28;20026;-66
2021/10/10 09:15:06;;;;;;;19.85;17.02;;;33.70;30.00;;;;;;5025175;28;20033;-66
2021/10/10 09:17:32;;;;;;;18.58;16.00;;;34.20;29.20;;;;;;5023882;28;20041;-65
2021/10/10 09:19:59;;;;;;;18.20;16.13;;;34.50;28.70;;;;;;5026458;28;20171;-66
2021/10/10 09:22:26;;;;;;;18.05;16.10;;;35.00;29.30;;;;;;5032654;28;20043;-66
2021/10/10 09:24:55;;;;;;;17.80;15.90;;;35.60;27.70;;;;;;5026814;28;20068;-66
2021/10/10 09:27:26;;;;;;;18.10;15.90;;;35.90;27.10;;;;;;5029221;28;20127;-66
2021/10/10 09:29:53;;;;;;;18.30;15.30;;;36.40;26.90;;;;;;5029410;28;20040;-66
2021/10/10 09:32:22;;;;;;;17.90;15.68;;;36.90;26.60;;;;;;5026608;28;20020;-66
2021/10/10 09:34:49;;;;;;;17.42;15.02;;;37.20;26.20;;;;;;5037673;28;20496;-66
2021/10/10 09:37:27;;;;;;;16.25;14.57;;;37.30;25.70;;;;;;5037293;28;20075;-66
2021/10/10 09:40:10;;;;;;;18.35;15.20;;;37.60;25.40;;;;;;5025473;28;20049;-66
2021/10/10 09:42:43;;;;;;;16.65;14.85;;;37.70;25.50;;;;;;5015777;28;20060;-66
2021/10/10 09:45:29;;;;;;;16.60;14.77;;;36.80;25.60;;;;;;5028376;28;20111;-66
2021/10/10 09:47:57;;;;;;;18.88;15.02;;;35.20;27.70;;;;;;5022318;28;20041;-66
2021/10/10 09:50:26;;;;;;;16.70;14.40;;;34.00;28.00;;;;;;5028585;28;20079;-66
2021/10/10 09:53:04;;;;;;;17.60;15.07;;;33.10;28.80;;;;;;5040806;28;20022;-66
2021/10/10 09:55:31;;;;;;;16.95;15.15;;;32.40;29.20;;;;;;5031589;28;20116;-66
2021/10/10 09:57:57;;;;;;;17.65;14.90;;;32.90;29.00;;;;;;5029633;28;20022;-66
2021/10/10 10:00:26;;;;;;;16.65;14.82;;;33.70;28.60;;;;;;5036690;28;20026;-67
2021/10/10 10:03:10;;;;;;;17.80;15.40;;;34.20;28.10;;;;;;5031786;28;20464;-67
2021/10/10 10:05:37;;;;;;;16.08;14.35;;;35.10;27.00;;;;;;5032752;28;20030;-67
2021/10/10 10:08:03;;;;;;;15.90;14.20;;;36.00;26.40;;;;;;5032181;28;20100;-67
2021/10/10 10:10:30;;;;;;;15.77;14.18;;;36.50;25.50;;;;;;5039014;28;20318;-67
2021/10/10 10:12:58;;;;;;;15.45;13.82;;;36.40;25.20;;;;;;5029721;28;20112;-67
2021/10/10 10:15:29;;;;;;;17.02;14.68;;;36.40;25.80;;;;;;5032313;28;20098;-67
2021/10/10 10:17:56;;;;;;;17.00;15.20;;;36.20;25.00;;;;;;5028533;28;20061;-67
2021/10/10 10:20:24;;;;;;;15.20;13.43;;;36.00;25.10;;;;;;5031031;28;20125;-67
2021/10/10 10:22:55;;;;;;;16.40;14.70;;;36.10;25.50;;;;;;5024896;28;20120;-66
2021/10/10 10:25:23;;;;;;;16.90;14.20;;;35.90;25.30;;;;;;5024378;28;20088;-69
2021/10/10 10:27:50;;;;;;;16.20;14.02;;;36.40;26.10;;;;;;5031087;28;20025;-69
2021/10/10 10:30:18;;;;;;;16.70;14.60;;;36.30;24.90;;;;;;5018477;28;20029;-68
2021/10/10 10:32:45;;;;;;;16.33;14.63;;;35.40;25.30;;;;;;5033537;28;20083;-66
2021/10/10 10:35:13;;;;;;;16.17;14.52;;;35.50;26.20;;;;;;5031202;28;20026;-66
2021/10/10 10:37:42;;;;;;;15.93;14.23;;;35.90;25.80;;;;;;5030512;28;20109;-67
2021/10/10 10:40:17;;;;;;;16.38;14.68;;;36.40;25.30;;;;;;5029318;28;20497;-66
2021/10/10 10:42:48;;;;;;;17.65;15.43;;;37.00;24.70;;;;;;5024083;28;20033;-67
2021/10/10 10:45:33;;;;;;;17.80;15.32;;;37.10;24.40;;;;;;5032541;28;20072;-67
2021/10/10 10:48:05;;;;;;;18.17;15.88;;;36.30;24.50;;;;;;5033148;28;20112;-67
2021/10/10 10:50:42;;;;;;;17.20;15.00;;;35.50;25.40;;;;;;5027936;28;20120;-67
2021/10/10 10:53:11;;;;;;;18.02;16.13;;;35.20;26.10;;;;;;5028606;28;20025;-67
2021/10/10 10:55:42;;;;;;;20.25;16.95;;;34.80;26.30;;;;;;5028503;28;20033;-67
2021/10/10 10:58:17;;;;;;;21.23;17.00;;;33.90;26.70;;;;;;5032199;28;20109;-66
2021/10/10 11:00:43;;;;;;;19.17;16.90;;;33.30;28.00;;;;;;5035527;28;20513;-66
2021/10/10 11:03:14;;;;;;;20.05;17.45;;;32.80;28.20;;;;;;5030188;28;20033;-65
2021/10/10 11:05:46;;;;;;;19.95;17.70;;;32.60;29.00;;;;;;5032218;28;20094;-66
2021/10/10 11:08:17;;;;;;;20.45;17.02;;;32.30;28.90;;;;;;5028263;28;20034;-67
2021/10/10 11:11:16;;;;;;;19.98;16.60;;;33.00;29.20;;;;;;5025005;28;20543;-67
2021/10/10 11:13:52;;;;;;;19.20;16.70;;;33.60;28.10;;;;;;5029333;28;20021;-66
2021/10/10 11:16:25;;;;;;;19.30;16.55;;;33.20;28.20;;;;;;5030873;28;20036;-65
2021/10/10 11:19:01;;;;;;;21.35;17.23;;;34.20;27.90;;;;;;5030682;28;20109;-65
2021/10/10 11:21:34;;;;;;;18.50;15.80;;;35.20;27.20;;;;;;5031439;28;20116;-66
2021/10/10 11:24:01;;;;;;;19.40;17.30;;;34.60;26.80;;;;;;5032584;28;20469;-65
2021/10/10 11:26:28;;;;;;;20.88;18.20;;;34.50;27.80;;;;;;5022673;28;20033;-65
2021/10/10 11:28:55;;;;;;;18.95;16.60;;;34.20;28.20;;;;;;5026458;28;20104;-65
2021/10/10 11:31:33;;;;;;;20.50;17.30;;;34.60;27.20;;;;;;5030749;28;20113;-65
2021/10/10 11:34:17;;;;;;;21.65;18.23;;;34.00;26.80;;;;;;5028656;28;20108;-64
2021/10/10 11:36:52;;;;;;;19.48;17.35;;;33.80;28.60;;;;;;5019069;28;20043;-65
2021/10/10 11:39:22;;;;;;;19.52;17.05;;;34.80;27.90;;;;;;5040606;28;20033;-65
2021/10/10 11:41:53;;;;;;;21.05;17.42;;;35.90;26.50;;;;;;5014320;28;20045;-65
2021/10/10 11:44:21;;;;;;;18.85;16.85;;;36.50;25.80;;;;;;5018742;28;20108;-65
2021/10/10 11:46:57;;;;;;;16.90;14.90;;;37.00;25.00;;;;;;5015326;28;20026;-65
2021/10/10 11:49:42;;;;;;;18.30;15.70;;;37.80;24.20;;;;;;5012003;28;20048;-65
2021/10/10 11:52:34;;;;;;;17.00;14.32;;;38.70;23.30;;;;;;5010175;28;20394;-66
2021/10/10 11:55:26;;;;;;;14.80;13.13;;;40.10;22.90;;;;;;4998223;28;20018;-66
2021/10/10 11:57:57;;;;;;;17.00;13.48;;;41.40;21.10;;;;;;5006830;28;20034;-65
2021/10/10 12:00:30;;;;;;;15.73;13.77;;;38.30;21.50;;;;;;5011156;28;20038;-66
2021/10/10 12:03:10;;;;;;;16.23;14.32;;;36.10;23.20;;;;;;5012052;28;20033;-65
2021/10/10 12:05:41;;;;;;;16.70;13.90;;;34.70;24.60;;;;;;5025422;28;20029;-66
2021/10/10 12:08:22;;;;;;;15.73;13.57;;;34.10;24.90;;;;;;5009292;28;20069;-65
2021/10/10 12:10:48;;;;;;;16.92;13.30;;;34.00;24.50;;;;;;5012334;28;20022;-65
2021/10/10 12:13:22;;;;;;;14.15;12.63;;;36.40;24.50;;;;;;5007437;28;20034;-66
2021/10/10 12:16:01;;;;;;;14.15;11.52;;;37.90;22.60;;;;;;5015740;28;20022;-66
2021/10/10 12:18:31;;;;;;;15.55;12.70;;;36.50;21.60;;;;;;5018643;28;20029;-65
2021/10/10 12:21:35;;;;;;;17.00;13.30;;;35.60;23.40;;;;;;5016468;28;20037;-65
2021/10/10 12:24:11;;;;;;;16.23;12.80;;;33.10;24.70;;;;;;5014538;28;20030;-65
2021/10/10 12:26:55;;;;;;;15.77;13.43;;;31.50;26.80;;;;;;5010354;28;20053;-65
2021/10/10 12:29:24;;;;;;;16.23;13.70;;;31.10;29.30;;;;;;5006941;28;20042;-65
2021/10/10 12:31:50;;;;;;;14.68;12.45;;;33.70;26.70;;;;;;5008193;28;20029;-65
2021/10/10 12:34:16;;;;;;;14.23;11.50;;;35.80;24.80;;;;;;5007988;28;20045;-65
2021/10/10 12:36:47;;;;;;;14.32;11.05;;;36.50;23.80;;;;;;5008056;28;20030;-65
2021/10/10 12:39:14;;;;;;;14.82;11.80;;;38.10;22.50;;;;;;5014273;28;20034;-65
2021/10/10 12:41:40;;;;;;;13.15;11.27;;;38.80;21.70;;;;;;5025720;28;20048;-66